Time;durP1;ratioP1;P1;durP2;ratioP2;P2;SDS_P1;SDS_P2;PMS_P1;PMS_P2;Temp;Humidity;BMP_temperature;BMP_pressure;BME280_temperature;BME280_humidity;BME280_pressure;Samples;Min_cycle;Max_cycle;Signal;HPM_P1;HPM_P2
2021/12/08 00:02:17;;;;;;;5.65;3.02;;;2.10;99.90;;;;;;1968438;72;21075;-81
2021/12/08 00:04:43;;;;;;;8.78;3.55;;;2.20;99.90;;;;;;1958245;72;21038;-80
2021/12/08 00:07:09;;;;;;;5.35;3.12;;;2.20;99.90;;;;;;1965768;72;21463;-80
2021/12/08 00:14:47;;;;;;;3.65;2.67;;;2.40;99.90;;;;;;1958812;72;21057;-80
2021/12/08 00:17:13;;;;;;;3.02;2.30;;;2.40;99.90;;;;;;1961383;72;21072;-79
2021/12/08 00:19:39;;;;;;;7.83;2.70;;;2.40;99.90;;;;;;1969213;72;21052;-81
2021/12/08 00:22:06;;;;;;;3.55;2.58;;;2.50;99.90;;;;;;1955068;72;21068;-80
2021/12/08 00:24:32;;;;;;;5.73;2.50;;;2.50;99.90;;;;;;1954217;72;21610;-79
2021/12/08 00:26:58;;;;;;;5.80;2.98;;;2.50;99.90;;;;;;1955419;72;21512;-79
2021/12/08 00:29:24;;;;;;;6.20;3.17;;;2.40;99.90;;;;;;1954766;72;21469;-80
2021/12/08 00:31:50;;;;;;;6.70;3.52;;;2.60;99.90;;;;;;1967582;72;21059;-79
2021/12/08 00:34:16;;;;;;;6.03;3.10;;;2.60;99.90;;;;;;1958888;72;21149;-80
2021/12/08 00:36:46;;;;;;;4.37;2.98;;;2.50;99.90;;;;;;1955220;72;21130;-79
2021/12/08 00:39:10;;;;;;;8.10;3.22;;;2.50;99.90;;;;;;1963021;71;21626;-80
2021/12/08 00:41:36;;;;;;;4.72;2.72;;;2.50;99.90;;;;;;1966046;72;21473;-79
2021/12/08 00:44:02;;;;;;;6.50;3.00;;;2.60;99.90;;;;;;1963568;72;21427;-80
2021/12/08 00:46:30;;;;;;;4.55;2.77;;;2.60;99.90;;;;;;1958159;72;21072;-79
2021/12/08 00:48:56;;;;;;;3.37;2.83;;;2.70;99.90;;;;;;1969530;72;21586;-81
2021/12/08 00:51:22;;;;;;;6.22;2.75;;;2.70;99.90;;;;;;1955895;72;21073;-80
2021/12/08 00:53:48;;;;;;;6.78;2.95;;;2.70;99.90;;;;;;1953440;72;21068;-80
2021/12/08 00:56:14;;;;;;;5.47;2.85;;;2.70;99.90;;;;;;1953268;72;21131;-80
2021/12/08 00:58:40;;;;;;;4.67;3.00;;;2.60;99.90;;;;;;1957860;72;21190;-80
2021/12/08 01:01:07;;;;;;;5.00;2.83;;;2.40;99.90;;;;;;1966761;72;21037;-79
2021/12/08 01:03:34;;;;;;;5.47;2.35;;;2.40;99.90;;;;;;1961647;72;21041;-80
2021/12/08 01:06:00;;;;;;;4.25;2.70;;;2.60;99.90;;;;;;1955602;73;21064;-80
2021/12/08 01:08:26;;;;;;;3.87;2.65;;;2.60;99.90;;;;;;1968608;72;21064;-80
2021/12/08 01:10:52;;;;;;;5.72;2.55;;;2.50;99.90;;;;;;1967099;72;21084;-79
2021/12/08 01:13:18;;;;;;;7.10;2.85;;;2.40;99.90;;;;;;1960427;72;21065;-79
2021/12/08 01:15:44;;;;;;;4.85;2.77;;;2.50;99.90;;;;;;1963404;72;21126;-79
2021/12/08 01:18:10;;;;;;;4.75;2.65;;;2.50;99.90;;;;;;1957951;72;21033;-79
2021/12/08 01:20:37;;;;;;;3.05;2.33;;;2.40;99.90;;;;;;1968483;72;21115;-80
2021/12/08 01:23:03;;;;;;;9.10;2.20;;;2.40;99.90;;;;;;1963359;72;21084;-79
2021/12/08 01:25:29;;;;;;;5.05;2.27;;;2.40;99.90;;;;;;1961853;72;21575;-79
2021/12/08 01:27:55;;;;;;;5.90;2.37;;;2.50;99.90;;;;;;1963508;72;21485;-78
2021/12/08 01:30:21;;;;;;;4.15;2.08;;;2.50;99.90;;;;;;1958039;72;21561;-78
2021/12/08 01:32:47;;;;;;;3.50;1.77;;;2.60;99.90;;;;;;1960064;72;21072;-78
2021/12/08 01:35:13;;;;;;;2.10;1.72;;;2.50;99.90;;;;;;1966469;72;21149;-79
2021/12/08 01:37:39;;;;;;;3.58;1.85;;;2.40;99.90;;;;;;1968258;72;21037;-79
2021/12/08 01:40:06;;;;;;;6.12;1.80;;;2.50;99.90;;;;;;1970082;72;21091;-78
2021/12/08 01:42:36;;;;;;;4.92;2.10;;;2.40;99.90;;;;;;1945290;72;21072;-78
2021/12/08 01:47:44;;;;;;;1.90;1.65;;;2.40;99.90;;;;;;1960675;72;21057;-78
2021/12/08 01:50:10;;;;;;;4.28;2.10;;;2.30;99.90;;;;;;1948344;72;21072;-79
2021/12/08 01:52:36;;;;;;;4.83;2.40;;;2.30;99.90;;;;;;1964163;72;21068;-78
2021/12/08 01:55:02;;;;;;;2.10;1.90;;;2.30;99.90;;;;;;1966188;72;21072;-79
2021/12/08 01:57:28;;;;;;;4.50;2.05;;;2.30;99.90;;;;;;1959544;72;21029;-79
2021/12/08 01:59:56;;;;;;;9.33;2.40;;;2.30;99.90;;;;;;1954605;72;21068;-78
2021/12/08 02:02:22;;;;;;;2.40;1.98;;;2.20;99.90;;;;;;1958674;72;21088;-79
2021/12/08 02:04:50;;;;;;;3.90;2.00;;;2.20;99.90;;;;;;1972220;72;21146;-78
2021/12/08 02:07:16;;;;;;;4.10;2.37;;;2.30;99.90;;;;;;1961160;72;21081;-79
2021/12/08 02:09:43;;;;;;;3.00;2.05;;;2.30;99.90;;;;;;1967260;72;21209;-79
2021/12/08 02:12:09;;;;;;;11.10;2.30;;;2.20;99.90;;;;;;1966241;72;21133;-79
2021/12/08 02:14:39;;;;;;;4.55;2.40;;;2.30;99.90;;;;;;1966118;72;21073;-79
2021/12/08 02:17:10;;;;;;;2.97;2.40;;;2.30;99.90;;;;;;1962622;72;21272;-81
2021/12/08 02:19:32;;;;;;;4.53;2.22;;;2.20;99.90;;;;;;1955071;71;21481;-80
2021/12/08 02:21:58;;;;;;;2.85;2.15;;;2.30;99.90;;;;;;1954804;72;21057;-79
2021/12/08 02:24:25;;;;;;;4.40;2.62;;;2.40;99.90;;;;;;1972412;72;21065;-80
2021/12/08 02:26:51;;;;;;;4.72;2.72;;;2.30;99.90;;;;;;1961047;72;21150;-81
2021/12/08 02:29:25;;;;;;;5.15;2.52;;;2.40;99.90;;;;;;1962040;72;21227;-80
2021/12/08 02:31:58;;;;;;;3.37;2.45;;;2.30;99.90;;;;;;1967852;71;21537;-80
2021/12/08 02:48:00;;;;;;;3.00;2.25;;;2.10;99.90;;;;;;1943343;72;21463;-80
2021/12/08 02:50:26;;;;;;;3.45;2.30;;;2.20;99.90;;;;;;1951024;72;21189;-79
2021/12/08 02:52:52;;;;;;;4.33;2.42;;;2.30;99.90;;;;;;2002187;70;21052;-78
2021/12/08 02:55:18;;;;;;;5.65;2.62;;;2.30;99.90;;;;;;1967398;72;21076;-77
2021/12/08 02:57:44;;;;;;;6.05;2.45;;;2.40;99.90;;;;;;1958862;72;21150;-78
2021/12/08 03:00:10;;;;;;;3.75;2.47;;;2.40;99.90;;;;;;1960416;72;21114;-78
2021/12/08 03:02:36;;;;;;;5.90;2.12;;;2.50;99.90;;;;;;1952268;72;21515;-78
2021/12/08 03:05:03;;;;;;;3.40;2.25;;;2.50;99.90;;;;;;1963677;72;21687;-78
2021/12/08 03:07:29;;;;;;;4.60;2.10;;;2.40;99.90;;;;;;1958389;72;21562;-79
2021/12/08 03:09:55;;;;;;;3.17;2.27;;;2.50;99.90;;;;;;1968631;72;21223;-79
2021/12/08 03:12:21;;;;;;;6.90;2.52;;;2.50;99.90;;;;;;1953665;72;21155;-79
2021/12/08 03:14:49;;;;;;;3.95;2.45;;;2.30;99.90;;;;;;1970227;72;21029;-78
2021/12/08 03:17:15;;;;;;;4.03;2.80;;;2.40;99.90;;;;;;1966748;72;21904;-78
2021/12/08 03:19:41;;;;;;;4.92;2.22;;;2.30;99.90;;;;;;1963507;72;21579;-79
2021/12/08 03:22:10;;;;;;;3.22;2.22;;;2.40;99.90;;;;;;1958729;72;21488;-78
2021/12/08 03:24:38;;;;;;;4.28;3.10;;;2.30;99.90;;;;;;1956659;71;21092;-80
2021/12/08 03:29:36;;;;;;;8.18;2.90;;;2.40;99.90;;;;;;1965835;72;21109;-78
2021/12/08 03:32:11;;;;;;;3.60;2.62;;;2.30;99.90;;;;;;1957448;71;21493;-79
2021/12/08 03:34:26;;;;;;;4.20;2.95;;;2.20;99.90;;;;;;1950668;71;21113;-79
2021/12/08 03:36:52;;;;;;;4.17;2.80;;;2.20;99.90;;;;;;1959562;72;21072;-79
2021/12/08 03:39:18;;;;;;;3.58;3.02;;;2.30;99.90;;;;;;1968467;72;21448;-77
2021/12/08 03:41:46;;;;;;;3.72;2.70;;;2.20;99.90;;;;;;1958809;72;21646;-78
2021/12/08 03:44:12;;;;;;;5.33;2.85;;;2.20;99.90;;;;;;2001537;70;21076;-78
2021/12/08 03:46:41;;;;;;;4.45;2.85;;;2.30;99.90;;;;;;1962823;72;21068;-78
2021/12/08 03:49:09;;;;;;;5.08;2.67;;;2.30;99.90;;;;;;1964377;71;21335;-79
2021/12/08 03:51:33;;;;;;;4.72;3.22;;;2.40;99.90;;;;;;1967217;71;21072;-79
2021/12/08 03:54:00;;;;;;;4.33;2.80;;;2.30;99.90;;;;;;1960957;72;21060;-76
2021/12/08 03:56:26;;;;;;;4.53;2.60;;;2.30;99.90;;;;;;1959244;72;21184;-77
2021/12/08 03:58:52;;;;;;;3.25;2.92;;;2.30;99.90;;;;;;1962190;72;21029;-77
2021/12/08 04:01:18;;;;;;;4.95;2.70;;;2.30;99.90;;;;;;1958902;72;21236;-78
2021/12/08 04:03:49;;;;;;;4.28;2.60;;;2.40;99.90;;;;;;1955355;72;21264;-78
2021/12/08 04:06:27;;;;;;;7.78;3.20;;;2.40;99.90;;;;;;1960175;71;21116;-78
2021/12/08 04:08:52;;;;;;;;;;;2.50;99.90;;;;;;1975381;70;21437;-78
2021/12/08 04:11:10;;;;;;;4.33;2.65;;;2.50;99.90;;;;;;1969759;71;20319;-77
2021/12/08 04:13:36;;;;;;;7.60;3.17;;;2.60;99.90;;;;;;1967118;72;21202;-79
2021/12/08 04:16:02;;;;;;;3.58;2.33;;;2.60;99.90;;;;;;1954128;72;21185;-78
2021/12/08 04:18:28;;;;;;;6.22;3.30;;;2.60;99.90;;;;;;1973994;72;21041;-78
2021/12/08 04:20:54;;;;;;;4.20;2.80;;;2.70;99.90;;;;;;1957447;72;21068;-78
2021/12/08 04:23:21;;;;;;;7.80;2.98;;;2.70;99.90;;;;;;1961492;72;21153;-78
2021/12/08 04:25:47;;;;;;;3.87;2.60;;;2.70;99.90;;;;;;1958517;72;21150;-78
2021/12/08 04:28:13;;;;;;;2.85;2.55;;;2.80;99.90;;;;;;1963160;72;21166;-79
2021/12/08 04:30:39;;;;;;;4.85;3.58;;;2.80;99.90;;;;;;1955611;72;21145;-79
2021/12/08 04:33:05;;;;;;;6.55;3.00;;;2.80;99.90;;;;;;1958179;72;21060;-79
2021/12/08 04:35:31;;;;;;;6.35;3.42;;;2.80;99.90;;;;;;1957910;72;21070;-78
2021/12/08 04:37:58;;;;;;;8.38;3.37;;;2.70;99.90;;;;;;1958779;72;21037;-79
2021/12/08 04:40:30;;;;;;;18.15;3.80;;;2.80;99.90;;;;;;1956371;72;21457;-78
2021/12/08 04:43:07;;;;;;;6.67;3.50;;;2.80;99.90;;;;;;1968943;71;21037;-79
2021/12/08 04:45:33;;;;;;;8.58;4.00;;;2.80;99.90;;;;;;1970483;71;21253;-78
2021/12/08 04:48:21;;;;;;;7.08;3.70;;;2.80;99.90;;;;;;1959503;71;21191;-78
2021/12/08 04:53:36;;;;;;;9.58;3.67;;;2.90;99.90;;;;;;1963825;72;21146;-77
2021/12/08 05:01:20;;;;;;;7.15;3.92;;;3.00;99.90;;;;;;1969822;72;20246;-79
2021/12/08 05:08:41;;;;;;;5.20;3.80;;;2.90;99.90;;;;;;1962626;72;21109;-78
2021/12/08 05:11:07;;;;;;;5.83;4.30;;;3.00;99.90;;;;;;1963408;72;21157;-78
2021/12/08 05:13:33;;;;;;;7.65;5.10;;;2.90;99.90;;;;;;1956340;72;21045;-77
2021/12/08 05:15:59;;;;;;;7.35;5.33;;;3.00;99.90;;;;;;1958620;72;21142;-78
2021/12/08 05:18:28;;;;;;;15.13;6.60;;;3.00;99.90;;;;;;1963780;72;21201;-78
2021/12/08 05:20:55;;;;;;;7.80;5.58;;;2.90;99.90;;;;;;1959386;71;21064;-78
2021/12/08 05:23:22;;;;;;;8.95;5.87;;;3.00;99.90;;;;;;1966589;71;21141;-79
2021/12/08 05:25:48;;;;;;;6.90;5.60;;;3.00;99.90;;;;;;1959499;72;21605;-79
2021/12/08 05:28:15;;;;;;;8.68;6.17;;;3.00;99.90;;;;;;1963070;72;21574;-78
2021/12/08 05:30:41;;;;;;;11.10;6.70;;;3.00;99.90;;;;;;1961486;72;21305;-79
2021/12/08 05:33:07;;;;;;;8.93;6.03;;;3.00;99.90;;;;;;1956304;72;21205;-79
2021/12/08 05:35:34;;;;;;;10.15;5.97;;;3.00;99.90;;;;;;1955213;72;21123;-78
2021/12/08 05:38:00;;;;;;;8.60;5.95;;;2.90;99.90;;;;;;1965445;72;21153;-78
2021/12/08 05:40:26;;;;;;;8.58;6.10;;;2.90;99.90;;;;;;1958472;72;21457;-79
2021/12/08 05:42:53;;;;;;;13.90;7.00;;;3.00;99.90;;;;;;1961238;72;21524;-80
2021/12/08 05:45:19;;;;;;;19.70;6.03;;;3.00;99.90;;;;;;1960254;72;21570;-78
2021/12/08 05:47:47;;;;;;;8.65;6.47;;;3.00;99.90;;;;;;1970801;72;21445;-78
2021/12/08 05:50:13;;;;;;;9.60;5.97;;;3.10;99.90;;;;;;1958877;72;21081;-79
2021/12/08 05:52:39;;;;;;;9.83;6.15;;;3.20;99.90;;;;;;1958290;72;21142;-78
2021/12/08 05:55:05;;;;;;;8.95;6.67;;;3.20;99.90;;;;;;1962913;72;21072;-77
2021/12/08 05:57:31;;;;;;;15.88;7.20;;;3.10;99.90;;;;;;1966002;72;21080;-77
2021/12/08 05:59:57;;;;;;;9.13;6.25;;;3.10;99.90;;;;;;1956373;72;21480;-77
2021/12/08 06:02:24;;;;;;;9.55;6.42;;;3.20;99.90;;;;;;1950010;72;21576;-78
2021/12/08 06:04:50;;;;;;;10.53;6.90;;;3.20;99.90;;;;;;1959043;72;21464;-77
2021/12/08 06:07:20;;;;;;;12.07;6.25;;;3.30;99.90;;;;;;1964455;72;21130;-77
2021/12/08 06:09:44;;;;;;;9.08;6.08;;;3.20;99.90;;;;;;1960769;71;21109;-78
2021/12/08 06:12:10;;;;;;;16.77;8.48;;;3.10;99.90;;;;;;1966897;72;21480;-78
2021/12/08 06:14:36;;;;;;;20.05;9.05;;;3.10;99.90;;;;;;1965285;72;21510;-78
2021/12/08 06:17:02;;;;;;;14.43;7.50;;;3.10;99.90;;;;;;1963277;72;21480;-79
2021/12/08 06:19:28;;;;;;;15.30;7.08;;;3.10;99.90;;;;;;1964572;72;21499;-78
2021/12/08 06:21:54;;;;;;;11.03;7.58;;;3.20;99.90;;;;;;1958862;72;21146;-77
2021/12/08 06:24:20;;;;;;;13.58;7.92;;;3.20;99.90;;;;;;1968739;72;21064;-78
2021/12/08 06:26:46;;;;;;;15.83;7.97;;;3.20;99.90;;;;;;1956411;72;21142;-78
2021/12/08 06:29:13;;;;;;;11.18;7.03;;;3.20;99.90;;;;;;1960566;72;21126;-78
2021/12/08 06:31:39;;;;;;;12.15;7.50;;;3.20;99.90;;;;;;1964427;72;21138;-76
2021/12/08 06:34:05;;;;;;;15.23;7.97;;;3.20;99.90;;;;;;1962666;72;21064;-77
2021/12/08 06:36:31;;;;;;;15.78;8.93;;;3.20;99.90;;;;;;1957990;72;21061;-78
2021/12/08 06:38:57;;;;;;;17.62;9.90;;;3.20;99.90;;;;;;1948263;73;21033;-77
2021/12/08 06:41:23;;;;;;;16.27;8.80;;;3.20;99.90;;;;;;1961763;72;21068;-77
2021/12/08 06:43:50;;;;;;;17.10;7.97;;;3.20;99.90;;;;;;1968642;72;21138;-75
2021/12/08 06:46:16;;;;;;;16.07;8.60;;;3.30;99.90;;;;;;1966298;72;21072;-76
2021/12/08 06:48:42;;;;;;;16.90;8.93;;;3.30;99.90;;;;;;1964845;72;21134;-76
2021/12/08 06:51:08;;;;;;;15.95;9.00;;;3.30;99.90;;;;;;1961968;72;21077;-77
2021/12/08 06:53:34;;;;;;;16.60;8.23;;;3.30;99.90;;;;;;1965038;72;21116;-76
2021/12/08 06:56:00;;;;;;;21.12;8.98;;;3.40;99.90;;;;;;1964469;72;21061;-76
2021/12/08 06:58:26;;;;;;;23.73;9.68;;;3.30;99.90;;;;;;1953431;72;21064;-77
2021/12/08 07:01:10;;;;;;;21.60;9.10;;;3.30;99.90;;;;;;1960186;72;21197;-78
2021/12/08 07:03:38;;;;;;;;;;;3.30;99.90;;;;;;1964024;71;21044;-79
2021/12/08 07:06:12;;;;;;;25.23;8.20;;;3.30;99.90;;;;;;1965683;71;20125;-78
2021/12/08 07:08:36;;;;;;;12.47;7.28;;;3.30;99.90;;;;;;1963158;71;21229;-79
2021/12/08 07:11:02;;;;;;;22.62;8.23;;;3.30;99.90;;;;;;1964554;72;21145;-79
2021/12/08 07:13:41;;;;;;;;;;;;;;;;;;;;;
2021/12/08 07:15:56;;;;;;;29.77;7.33;;;3.30;99.90;;;;;;1968596;72;21127;-78
2021/12/08 07:18:24;;;;;;;25.43;8.45;;;3.40;99.90;;;;;;1968250;72;21137;-76
2021/12/08 07:20:50;;;;;;;14.18;7.72;;;3.50;99.90;;;;;;1969142;72;21254;-73
2021/12/08 07:23:16;;;;;;;16.00;8.43;;;3.40;99.90;;;;;;1964142;72;21111;-75
2021/12/08 07:25:42;;;;;;;16.17;8.15;;;3.30;99.90;;;;;;1965929;72;21138;-75
2021/12/08 07:28:08;;;;;;;23.35;8.73;;;3.30;99.90;;;;;;1951755;72;21064;-75
2021/12/08 07:30:34;;;;;;;15.48;7.40;;;3.30;99.90;;;;;;1945213;72;21056;-76
2021/12/08 07:33:01;;;;;;;13.93;7.92;;;3.40;99.90;;;;;;1961808;72;21290;-77
2021/12/08 07:35:27;;;;;;;14.63;8.13;;;3.50;99.90;;;;;;1958407;72;21072;-76
2021/12/08 07:37:53;;;;;;;12.55;7.87;;;3.50;99.90;;;;;;1963103;72;21060;-78
2021/12/08 07:40:20;;;;;;;12.68;6.87;;;3.50;99.90;;;;;;1964889;72;21044;-78
2021/12/08 07:42:47;;;;;;;18.23;7.95;;;3.40;99.90;;;;;;1975358;72;21076;-79
2021/12/08 07:45:13;;;;;;;17.98;7.25;;;3.40;99.90;;;;;;1965168;72;21233;-78
2021/12/08 07:47:39;;;;;;;11.97;7.78;;;3.50;99.90;;;;;;1963131;72;21142;-78
2021/12/08 07:50:05;;;;;;;12.23;6.97;;;3.50;99.90;;;;;;1962526;72;21073;-79
2021/12/08 07:52:33;;;;;;;12.70;7.20;;;3.60;99.90;;;;;;1969628;72;21060;-78
2021/12/08 07:54:59;;;;;;;12.95;6.95;;;3.70;99.90;;;;;;1958353;72;21476;-79
2021/12/08 07:57:25;;;;;;;15.80;7.25;;;3.60;99.90;;;;;;1951923;72;21582;-78
2021/12/08 07:59:51;;;;;;;15.05;6.83;;;3.70;99.90;;;;;;1963253;72;21075;-78
2021/12/08 08:02:18;;;;;;;14.53;6.28;;;3.70;99.90;;;;;;1955296;72;21060;-78
2021/12/08 08:04:44;;;;;;;9.70;6.10;;;3.70;99.90;;;;;;1952465;72;21072;-81
2021/12/08 08:07:10;;;;;;;10.98;7.22;;;3.70;99.90;;;;;;1954511;72;21559;-78
2021/12/08 08:09:38;;;;;;;16.48;6.70;;;3.70;99.90;;;;;;1972453;72;21149;-79
2021/12/08 08:12:04;;;;;;;10.28;6.67;;;3.70;99.90;;;;;;1969570;72;21139;-80
2021/12/08 08:14:31;;;;;;;7.40;6.20;;;3.80;99.90;;;;;;1950584;72;21072;-78
2021/12/08 08:16:59;;;;;;;9.68;6.30;;;3.90;99.90;;;;;;1966295;72;21133;-79
2021/12/08 08:19:28;;;;;;;13.62;7.12;;;4.00;99.90;;;;;;1960609;72;21221;-79
2021/12/08 08:21:53;;;;;;;13.78;7.33;;;4.00;99.90;;;;;;1956642;71;21478;-78
2021/12/08 08:24:19;;;;;;;9.98;6.55;;;3.90;99.90;;;;;;1965923;72;21472;-79
2021/12/08 08:26:45;;;;;;;14.13;7.37;;;3.90;99.90;;;;;;1975045;72;21479;-78
2021/12/08 08:29:11;;;;;;;9.43;7.05;;;3.90;99.90;;;;;;1955394;72;21065;-77
2021/12/08 08:31:39;;;;;;;15.28;7.65;;;3.80;99.90;;;;;;1971290;72;21350;-79
2021/12/08 08:34:05;;;;;;;8.98;7.20;;;3.80;99.90;;;;;;1964928;71;21556;-78
2021/12/08 08:36:31;;;;;;;8.50;6.80;;;3.90;99.90;;;;;;1951693;73;21542;-78
2021/12/08 08:38:59;;;;;;;11.22;6.83;;;4.00;99.90;;;;;;1968061;72;21594;-79
2021/12/08 08:41:25;;;;;;;10.88;6.97;;;4.00;99.90;;;;;;1966331;72;21230;-79
2021/12/08 08:43:58;;;;;;;11.45;7.35;;;4.00;99.90;;;;;;1964025;72;21461;-86
2021/12/08 08:46:23;;;;;;;10.28;7.10;;;3.90;99.90;;;;;;1965517;71;21076;-83
2021/12/08 08:48:53;;;;;;;9.60;7.22;;;4.00;99.90;;;;;;1965121;71;21120;-83
2021/12/08 08:51:19;;;;;;;9.58;6.75;;;4.10;99.90;;;;;;1958305;72;21629;-83
2021/12/08 08:53:50;;;;;;;9.45;6.20;;;4.10;99.90;;;;;;1966800;72;21077;-84
2021/12/08 08:56:13;;;;;;;8.00;6.08;;;4.10;99.90;;;;;;1971329;71;21190;-83
2021/12/08 08:58:39;;;;;;;7.92;6.65;;;4.10;99.90;;;;;;1963444;72;21041;-82
2021/12/08 09:01:05;;;;;;;13.28;7.28;;;4.10;99.90;;;;;;1968349;72;21056;-82
2021/12/08 09:03:34;;;;;;;19.75;8.00;;;3.90;99.90;;;;;;1962280;72;21064;-80
2021/12/08 09:06:01;;;;;;;11.45;7.72;;;3.90;99.90;;;;;;1963524;71;21104;-81
2021/12/08 09:08:27;;;;;;;13.93;6.87;;;3.90;99.90;;;;;;1970682;71;21516;-80
2021/12/08 09:10:53;;;;;;;16.50;8.03;;;4.00;99.90;;;;;;1961132;72;21500;-83
2021/12/08 09:13:26;;;;;;;12.85;7.17;;;4.00;99.90;;;;;;1955068;73;21445;-81
2021/12/08 09:15:47;;;;;;;9.20;6.55;;;4.10;99.90;;;;;;1945118;71;21076;-77
2021/12/08 09:18:13;;;;;;;10.03;7.25;;;4.30;99.90;;;;;;1955951;72;21084;-78
2021/12/08 09:20:40;;;;;;;8.58;7.00;;;4.30;99.90;;;;;;1963211;72;21068;-81
2021/12/08 09:23:06;;;;;;;10.50;6.90;;;4.30;99.90;;;;;;1964314;72;21153;-78
2021/12/08 09:25:32;;;;;;;9.23;6.37;;;4.20;99.90;;;;;;1964912;72;21081;-78
2021/12/08 09:27:58;;;;;;;7.78;5.65;;;4.40;99.90;;;;;;1961842;72;21559;-77
2021/12/08 09:30:25;;;;;;;7.80;6.10;;;4.40;99.90;;;;;;1958435;72;21430;-79
2021/12/08 09:32:51;;;;;;;10.40;6.95;;;4.50;99.90;;;;;;1966469;72;21068;-76
2021/12/08 09:35:17;;;;;;;11.45;6.65;;;4.50;99.90;;;;;;1966715;72;21072;-75
2021/12/08 09:37:45;;;;;;;11.33;7.17;;;4.50;99.90;;;;;;1970172;72;21076;-75
2021/12/08 09:40:11;;;;;;;14.13;6.80;;;4.40;99.90;;;;;;1959363;72;21061;-77
2021/12/08 09:42:39;;;;;;;13.43;7.50;;;4.30;99.90;;;;;;1958943;72;21068;-77
2021/12/08 09:45:05;;;;;;;11.18;7.83;;;4.30;99.90;;;;;;1972330;72;21101;-78
2021/12/08 09:47:31;;;;;;;11.78;7.70;;;4.30;99.90;;;;;;1962083;72;21069;-78
2021/12/08 09:49:57;;;;;;;8.70;7.05;;;4.40;99.90;;;;;;1969056;72;21155;-77
2021/12/08 09:52:23;;;;;;;9.30;6.90;;;4.60;99.90;;;;;;1947574;72;21064;-77
2021/12/08 09:54:49;;;;;;;13.72;7.30;;;4.50;99.90;;;;;;1956275;72;21610;-77
2021/12/08 09:57:16;;;;;;;9.68;6.05;;;4.60;99.90;;;;;;1956344;72;21153;-79
2021/12/08 09:59:46;;;;;;;8.65;6.05;;;4.70;99.90;;;;;;2007944;71;21076;-79
2021/12/08 10:02:10;;;;;;;9.95;5.78;;;4.70;99.90;;;;;;1970400;71;21591;-78
2021/12/08 10:04:36;;;;;;;8.90;6.22;;;4.80;99.90;;;;;;1960463;72;21139;-78
2021/12/08 10:07:05;;;;;;;10.05;6.50;;;4.80;99.90;;;;;;1951644;72;21151;-78
2021/12/08 10:09:30;;;;;;;10.58;7.17;;;4.80;99.90;;;;;;1952128;71;21037;-78
2021/12/08 10:11:56;;;;;;;11.25;6.72;;;4.80;99.90;;;;;;1962347;72;21129;-78
2021/12/08 10:14:23;;;;;;;10.98;6.40;;;4.90;99.90;;;;;;1958173;72;21065;-78
2021/12/08 10:16:49;;;;;;;8.60;6.45;;;4.90;99.90;;;;;;1963217;72;21071;-77
2021/12/08 10:19:17;;;;;;;10.10;6.10;;;4.90;99.90;;;;;;1954923;72;21072;-78
2021/12/08 10:21:43;;;;;;;9.55;5.90;;;5.00;99.90;;;;;;1960378;72;21231;-76
2021/12/08 10:24:09;;;;;;;11.65;6.58;;;5.00;99.90;;;;;;1970686;72;21088;-77
2021/12/08 10:26:35;;;;;;;13.40;6.60;;;5.10;99.90;;;;;;1967802;72;21064;-76
2021/12/08 10:29:04;;;;;;;7.45;5.95;;;5.10;99.90;;;;;;1963040;72;21069;-76
2021/12/08 10:31:31;;;;;;;9.10;6.15;;;5.10;99.90;;;;;;1965675;72;21068;-77
2021/12/08 10:34:02;;;;;;;13.98;6.80;;;5.00;99.90;;;;;;1963584;72;21640;-76
2021/12/08 10:36:48;;;;;;;18.42;9.63;;;4.80;99.90;;;;;;1950148;72;21068;-77
2021/12/08 10:39:11;;;;;;;13.62;8.78;;;4.80;99.90;;;;;;1968797;71;21223;-78
2021/12/08 10:41:37;;;;;;;15.40;7.70;;;4.80;99.90;;;;;;1951541;72;21421;-77
2021/12/08 10:44:03;;;;;;;16.40;8.95;;;4.90;99.90;;;;;;1968663;72;21464;-76
2021/12/08 10:46:29;;;;;;;10.70;6.75;;;4.90;99.90;;;;;;1960765;72;21480;-77
2021/12/08 10:48:59;;;;;;;10.70;7.20;;;5.10;99.90;;;;;;1968880;72;21151;-76
2021/12/08 10:54:26;;;;;;;13.22;7.35;;;5.10;99.90;;;;;;1954932;72;21080;-77
2021/12/08 10:56:56;;;;;;;13.40;6.10;;;5.00;99.90;;;;;;1958645;72;21460;-75
2021/12/08 10:59:18;;;;;;;10.82;6.55;;;5.00;99.90;;;;;;1962278;71;21100;-79
2021/12/08 11:01:44;;;;;;;8.68;5.70;;;5.00;99.90;;;;;;1962986;72;21064;-79
2021/12/08 11:04:16;;;;;;;12.07;7.42;;;5.20;99.90;;;;;;1951569;72;21230;-78
2021/12/08 11:06:40;;;;;;;10.55;6.08;;;5.20;99.90;;;;;;1954800;71;21064;-79
2021/12/08 11:09:06;;;;;;;8.75;6.28;;;5.10;99.90;;;;;;1965193;72;21167;-77
2021/12/08 11:11:34;;;;;;;6.87;5.17;;;5.10;99.90;;;;;;1961531;72;21512;-77
2021/12/08 11:14:00;;;;;;;14.90;5.00;;;5.10;99.90;;;;;;1966800;72;21089;-79
2021/12/08 11:16:26;;;;;;;7.25;5.15;;;5.20;99.90;;;;;;1966104;72;21254;-78
2021/12/08 11:18:52;;;;;;;6.65;4.60;;;5.30;99.90;;;;;;1960229;72;21217;-78
2021/12/08 11:21:20;;;;;;;8.55;5.30;;;5.30;99.90;;;;;;1958341;72;21042;-79
2021/12/08 11:23:48;;;;;;;8.45;5.10;;;5.20;99.90;;;;;;1956416;71;21101;-72
2021/12/08 11:26:16;;;;;;;13.50;5.92;;;5.30;99.90;;;;;;1959631;71;21489;-78
2021/12/08 11:28:42;;;;;;;13.08;8.15;;;5.20;99.90;;;;;;1958169;72;21113;-78
2021/12/08 11:31:10;;;;;;;7.72;4.78;;;5.40;99.90;;;;;;1951667;73;21157;-79
2021/12/08 11:33:38;;;;;;;5.03;4.00;;;5.60;99.90;;;;;;1953022;72;21203;-80
2021/12/08 11:36:03;;;;;;;6.35;4.08;;;5.60;99.90;;;;;;1966492;71;21203;-77
2021/12/08 11:38:30;;;;;;;7.60;5.05;;;5.50;99.90;;;;;;1965133;72;21126;-78
2021/12/08 11:40:56;;;;;;;8.45;4.05;;;5.30;99.90;;;;;;1957900;72;21058;-78
2021/12/08 11:43:23;;;;;;;4.55;3.87;;;5.40;99.90;;;;;;1953645;72;21504;-79
2021/12/08 11:45:49;;;;;;;3.95;3.55;;;5.50;99.90;;;;;;1954168;72;21145;-78
2021/12/08 11:48:16;;;;;;;8.00;3.95;;;5.60;99.90;;;;;;1962176;72;21228;-77
2021/12/08 11:50:42;;;;;;;4.22;3.50;;;5.60;99.90;;;;;;1953537;72;21060;-78
2021/12/08 11:53:11;;;;;;;3.80;3.30;;;5.60;99.90;;;;;;1959373;72;21037;-78
2021/12/08 11:55:39;;;;;;;4.75;3.75;;;5.60;99.90;;;;;;1972109;71;21473;-77
2021/12/08 11:58:05;;;;;;;6.15;4.03;;;5.50;99.90;;;;;;1909202;73;21502;-79
2021/12/08 12:00:32;;;;;;;7.25;4.10;;;5.60;99.90;;;;;;1905828;74;21116;-79
2021/12/08 12:03:00;;;;;;;7.28;3.75;;;5.50;99.90;;;;;;1890004;74;21502;-78
2021/12/08 12:05:27;;;;;;;5.15;3.50;;;5.50;99.90;;;;;;1909727;74;21070;-77
2021/12/08 12:07:53;;;;;;;4.95;3.60;;;5.50;99.90;;;;;;1905726;73;21168;-76
2021/12/08 12:10:19;;;;;;;5.67;4.42;;;5.50;99.90;;;;;;1913155;74;21528;-76
2021/12/08 12:12:45;;;;;;;8.80;4.80;;;5.60;99.90;;;;;;1905247;74;21455;-77
2021/12/08 12:15:11;;;;;;;6.87;5.17;;;5.60;99.90;;;;;;1902681;75;21502;-76
2021/12/08 12:17:37;;;;;;;6.08;4.00;;;5.50;99.90;;;;;;1911768;74;21300;-77
2021/12/08 12:20:03;;;;;;;7.33;4.05;;;5.40;99.90;;;;;;1907785;74;21158;-77
2021/12/08 12:22:29;;;;;;;5.72;4.50;;;5.30;99.90;;;;;;1906667;74;21066;-75
2021/12/08 12:24:56;;;;;;;6.33;4.37;;;5.30;99.90;;;;;;1909877;74;21078;-76
2021/12/08 12:27:22;;;;;;;4.72;4.30;;;5.30;99.90;;;;;;1899619;74;21062;-76
2021/12/08 12:29:48;;;;;;;6.95;5.70;;;5.30;99.90;;;;;;1910671;74;21182;-76
2021/12/08 12:32:17;;;;;;;9.00;5.22;;;5.30;99.90;;;;;;1914088;73;21086;-77
2021/12/08 12:34:42;;;;;;;5.33;4.25;;;5.30;99.90;;;;;;1890986;75;21179;-79
2021/12/08 12:37:08;;;;;;;5.08;4.50;;;5.30;99.90;;;;;;1897752;75;21080;-77
2021/12/08 12:39:34;;;;;;;11.88;4.80;;;5.20;99.90;;;;;;1894294;74;21228;-77
2021/12/08 12:42:00;;;;;;;8.20;4.08;;;5.20;99.90;;;;;;1900792;74;21142;-77
2021/12/08 12:44:26;;;;;;;6.60;4.75;;;5.20;99.90;;;;;;1898377;74;21186;-76
2021/12/08 12:46:52;;;;;;;8.90;4.92;;;5.20;99.90;;;;;;1891660;75;21162;-77
2021/12/08 12:49:18;;;;;;;7.95;4.92;;;5.20;99.90;;;;;;1890339;75;21052;-77
2021/12/08 12:51:46;;;;;;;10.75;5.10;;;5.20;99.90;;;;;;1887804;75;21052;-75
2021/12/08 12:54:12;;;;;;;8.15;5.65;;;5.30;99.90;;;;;;1890117;75;21065;-75
2021/12/08 12:56:38;;;;;;;12.35;4.40;;;5.40;99.90;;;;;;1892214;75;21152;-75
2021/12/08 12:59:04;;;;;;;6.25;4.12;;;5.30;99.90;;;;;;1888941;75;21076;-76
2021/12/08 13:01:31;;;;;;;5.28;4.50;;;5.30;99.90;;;;;;1892335;75;21080;-76
2021/12/08 13:03:58;;;;;;;9.08;5.08;;;5.40;99.90;;;;;;1885877;75;21084;-74
2021/12/08 13:06:24;;;;;;;6.30;4.70;;;5.40;99.90;;;;;;1886799;75;21085;-74
2021/12/08 13:08:51;;;;;;;7.17;4.83;;;5.30;99.90;;;;;;1889153;75;21045;-75
2021/12/08 13:11:17;;;;;;;8.45;4.65;;;5.30;99.90;;;;;;1895446;73;21057;-75
2021/12/08 13:13:43;;;;;;;6.03;4.80;;;5.30;99.90;;;;;;1892857;75;21154;-75
2021/12/08 13:16:11;;;;;;;9.85;5.53;;;5.30;99.90;;;;;;1887148;75;21080;-76
2021/12/08 13:18:37;;;;;;;8.05;5.00;;;5.30;99.90;;;;;;1887124;75;21096;-76
2021/12/08 13:21:05;;;;;;;10.58;5.53;;;5.30;99.90;;;;;;1888966;75;21084;-75
2021/12/08 13:23:31;;;;;;;7.70;5.12;;;5.30;99.90;;;;;;1890448;75;21084;-75
2021/12/08 13:26:11;;;;;;;11.28;6.05;;;5.30;99.90;;;;;;1890348;75;21146;-75
2021/12/08 13:28:35;;;;;;;8.13;5.60;;;5.30;99.90;;;;;;1882513;75;21449;-76
2021/12/08 13:31:01;;;;;;;17.60;7.50;;;5.30;99.90;;;;;;1887571;75;21061;-75
2021/12/08 13:33:27;;;;;;;12.10;6.15;;;5.30;99.90;;;;;;1889225;75;21500;-74